sensor_id;sensor_type;location;lat;lon;timestamp;temperature;humidity
58309;DHT22;44117;57.142;24.826;2023-02-12T00:00:14;-3.50;99.90
58309;DHT22;44117;57.142;24.826;2023-02-12T00:02:41;-3.50;99.90
58309;DHT22;44117;57.142;24.826;2023-02-12T00:05:08;-3.50;99.90
58309;DHT22;44117;57.142;24.826;2023-02-12T00:07:35;-3.50;99.90
58309;DHT22;44117;57.142;24.826;2023-02-12T00:10:03;-3.40;99.90
58309;DHT22;44117;57.142;24.826;2023-02-12T00:12:30;-3.30;99.90
58309;DHT22;44117;57.142;24.826;2023-02-12T00:14:56;-3.30;99.90
58309;DHT22;44117;57.142;24.826;2023-02-12T00:17:24;-3.20;99.90
58309;DHT22;44117;57.142;24.826;2023-02-12T00:19:51;-3.30;99.90
58309;DHT22;44117;57.142;24.826;2023-02-12T00:22:18;-3.40;99.90
58309;DHT22;44117;57.142;24.826;2023-02-12T00:24:45;-3.40;99.90
58309;DHT22;44117;57.142;24.826;2023-02-12T00:27:12;-3.40;99.90
58309;DHT22;44117;57.142;24.826;2023-02-12T00:29:39;-3.50;99.90
58309;DHT22;44117;57.142;24.826;2023-02-12T00:32:06;-3.50;99.90
58309;DHT22;44117;57.142;24.826;2023-02-12T00:34:33;-3.50;99.90
58309;DHT22;44117;57.142;24.826;2023-02-12T00:37:00;-3.40;99.90
58309;DHT22;44117;57.142;24.826;2023-02-12T00:39:27;-3.40;99.90
58309;DHT22;44117;57.142;24.826;2023-02-12T00:41:54;-3.50;99.90
58309;DHT22;44117;57.142;24.826;2023-02-12T00:44:21;-3.60;99.90
58309;DHT22;44117;57.142;24.826;2023-02-12T00:46:48;-3.60;99.90
58309;DHT22;44117;57.142;24.826;2023-02-12T00:49:15;-3.50;99.90
58309;DHT22;44117;57.142;24.826;2023-02-12T00:51:44;-3.50;99.90
58309;DHT22;44117;57.142;24.826;2023-02-12T00:54:11;-3.40;99.90
58309;DHT22;44117;57.142;24.826;2023-02-12T00:56:38;-3.40;99.90
58309;DHT22;44117;57.142;24.826;2023-02-12T00:59:06;-3.40;99.90
58309;DHT22;44117;57.142;24.826;2023-02-12T01:01:33;-3.30;99.90
58309;DHT22;44117;57.142;24.826;2023-02-12T01:04:00;-3.30;99.90
58309;DHT22;44117;57.142;24.826;2023-02-12T01:06:27;-3.30;99.90
58309;DHT22;44117;57.142;24.826;2023-02-12T01:08:54;-3.20;99.90
58309;DHT22;44117;57.142;24.826;2023-02-12T01:11:21;-3.40;99.90
58309;DHT22;44117;57.142;24.826;2023-02-12T01:13:48;-3.40;99.90
58309;DHT22;44117;57.142;24.826;2023-02-12T01:16:16;-3.30;99.90
58309;DHT22;44117;57.142;24.826;2023-02-12T01:18:44;-3.20;99.90
58309;DHT22;44117;57.142;24.826;2023-02-12T01:21:30;-3.10;99.90
58309;DHT22;44117;57.142;24.826;2023-02-12T01:23:58;-3.10;99.90
58309;DHT22;44117;57.142;24.826;2023-02-12T01:26:25;-3.10;99.90
58309;DHT22;44117;57.142;24.826;2023-02-12T01:28:54;-3.10;99.90
58309;DHT22;44117;57.142;24.826;2023-02-12T01:31:23;-3.20;99.90
58309;DHT22;44117;57.142;24.826;2023-02-12T01:33:52;-3.30;99.90
58309;DHT22;44117;57.142;24.826;2023-02-12T01:36:19;-3.30;99.90
58309;DHT22;44117;57.142;24.826;2023-02-12T01:38:47;-3.50;99.90
58309;DHT22;44117;57.142;24.826;2023-02-12T01:41:16;-3.60;99.90
58309;DHT22;44117;57.142;24.826;2023-02-12T01:43:43;-3.60;99.90
58309;DHT22;44117;57.142;24.826;2023-02-12T01:46:12;-3.70;99.90
58309;DHT22;44117;57.142;24.826;2023-02-12T01:48:43;-3.70;99.90
58309;DHT22;44117;57.142;24.826;2023-02-12T01:51:11;-3.70;99.90
58309;DHT22;44117;57.142;24.826;2023-02-12T01:53:42;-3.80;99.90
58309;DHT22;44117;57.142;24.826;2023-02-12T01:56:09;-3.80;99.90
58309;DHT22;44117;57.142;24.826;2023-02-12T01:58:37;-3.60;99.90
58309;DHT22;44117;57.142;24.826;2023-02-12T02:01:07;-3.50;99.90
58309;DHT22;44117;57.142;24.826;2023-02-12T02:03:36;-3.60;99.90
58309;DHT22;44117;57.142;24.826;2023-02-12T02:06:08;-3.60;99.90
58309;DHT22;44117;57.142;24.826;2023-02-12T02:08:37;-3.50;99.90
58309;DHT22;44117;57.142;24.826;2023-02-12T02:11:04;-3.50;99.90
58309;DHT22;44117;57.142;24.826;2023-02-12T02:13:53;-3.50;99.90
58309;DHT22;44117;57.142;24.826;2023-02-12T02:16:41;-3.50;99.90
58309;DHT22;44117;57.142;24.826;2023-02-12T02:27:34;-3.60;99.90
58309;DHT22;44117;57.142;24.826;2023-02-12T02:32:41;-3.60;99.90
58309;DHT22;44117;57.142;24.826;2023-02-12T02:35:10;-3.70;99.90
58309;DHT22;44117;57.142;24.826;2023-02-12T02:37:39;-3.60;99.90
58309;DHT22;44117;57.142;24.826;2023-02-12T02:40:45;-3.50;99.90
58309;DHT22;44117;57.142;24.826;2023-02-12T02:43:06;-3.60;99.90
58309;DHT22;44117;57.142;24.826;2023-02-12T02:45:47;-3.70;99.90
58309;DHT22;44117;57.142;24.826;2023-02-12T02:50:45;-3.70;99.90
58309;DHT22;44117;57.142;24.826;2023-02-12T02:55:54;-3.90;99.90
58309;DHT22;44117;57.142;24.826;2023-02-12T02:58:26;-4.00;99.90
58309;DHT22;44117;57.142;24.826;2023-02-12T03:01:01;-4.00;99.90
58309;DHT22;44117;57.142;24.826;2023-02-12T03:06:26;-4.10;99.90
58309;DHT22;44117;57.142;24.826;2023-02-12T03:08:51;-4.20;99.90
58309;DHT22;44117;57.142;24.826;2023-02-12T03:11:24;-4.20;99.90
58309;DHT22;44117;57.142;24.826;2023-02-12T03:16:23;-4.10;99.90
58309;DHT22;44117;57.142;24.826;2023-02-12T03:18:53;-4.10;99.90
58309;DHT22;44117;57.142;24.826;2023-02-12T03:21:25;-4.20;99.90
58309;DHT22;44117;57.142;24.826;2023-02-12T03:23:56;-4.10;99.90
58309;DHT22;44117;57.142;24.826;2023-02-12T03:26:26;-4.00;99.90
58309;DHT22;44117;57.142;24.826;2023-02-12T03:28:55;-4.10;99.90
58309;DHT22;44117;57.142;24.826;2023-02-12T03:36:28;-4.10;99.90
58309;DHT22;44117;57.142;24.826;2023-02-12T03:39:07;-4.10;99.90
58309;DHT22;44117;57.142;24.826;2023-02-12T03:41:40;-4.10;99.90
58309;DHT22;44117;57.142;24.826;2023-02-12T03:44:22;-4.20;99.90
58309;DHT22;44117;57.142;24.826;2023-02-12T03:47:01;-4.20;99.90
58309;DHT22;44117;57.142;24.826;2023-02-12T03:49:45;-4.30;99.90
58309;DHT22;44117;57.142;24.826;2023-02-12T03:52:16;-4.40;99.90
58309;DHT22;44117;57.142;24.826;2023-02-12T03:54:43;-4.40;99.90
58309;DHT22;44117;57.142;24.826;2023-02-12T03:57:12;-4.30;99.90
58309;DHT22;44117;57.142;24.826;2023-02-12T03:59:40;-4.10;99.90
58309;DHT22;44117;57.142;24.826;2023-02-12T04:02:07;-4.20;99.90
58309;DHT22;44117;57.142;24.826;2023-02-12T04:04:34;-4.20;99.90
58309;DHT22;44117;57.142;24.826;2023-02-12T04:07:02;-4.10;99.90
58309;DHT22;44117;57.142;24.826;2023-02-12T04:09:29;-4.10;99.90
58309;DHT22;44117;57.142;24.826;2023-02-12T04:14:35;-4.30;99.90
58309;DHT22;44117;57.142;24.826;2023-02-12T04:19:48;-4.30;99.90
58309;DHT22;44117;57.142;24.826;2023-02-12T04:22:20;-4.30;99.90
58309;DHT22;44117;57.142;24.826;2023-02-12T04:27:38;-4.10;99.90
58309;DHT22;44117;57.142;24.826;2023-02-12T04:30:20;-4.10;99.90
58309;DHT22;44117;57.142;24.826;2023-02-12T04:32:52;-4.20;99.90
58309;DHT22;44117;57.142;24.826;2023-02-12T04:35:21;-4.00;99.90
58309;DHT22;44117;57.142;24.826;2023-02-12T04:37:51;-4.10;99.90
58309;DHT22;44117;57.142;24.826;2023-02-12T04:40:20;-3.90;99.90
58309;DHT22;44117;57.142;24.826;2023-02-12T04:42:49;-3.90;99.90
58309;DHT22;44117;57.142;24.826;2023-02-12T04:45:20;-3.70;99.90
58309;DHT22;44117;57.142;24.826;2023-02-12T04:47:48;-3.80;99.90
58309;DHT22;44117;57.142;24.826;2023-02-12T04:50:15;-4.00;99.90
58309;DHT22;44117;57.142;24.826;2023-02-12T04:52:42;-3.90;99.90
58309;DHT22;44117;57.142;24.826;2023-02-12T04:55:09;-3.80;99.90
58309;DHT22;44117;57.142;24.826;2023-02-12T04:57:36;-3.50;99.90
58309;DHT22;44117;57.142;24.826;2023-02-12T05:00:04;-3.50;99.90
58309;DHT22;44117;57.142;24.826;2023-02-12T05:02:34;-3.50;99.90
58309;DHT22;44117;57.142;24.826;2023-02-12T05:05:01;-3.40;99.90
58309;DHT22;44117;57.142;24.826;2023-02-12T05:07:29;-3.50;99.90
58309;DHT22;44117;57.142;24.826;2023-02-12T05:09:56;-3.50;99.90
58309;DHT22;44117;57.142;24.826;2023-02-12T05:12:23;-3.60;99.90
58309;DHT22;44117;57.142;24.826;2023-02-12T05:14:50;-3.70;99.90
58309;DHT22;44117;57.142;24.826;2023-02-12T05:17:16;-3.60;99.90
58309;DHT22;44117;57.142;24.826;2023-02-12T05:19:44;-3.60;99.90
58309;DHT22;44117;57.142;24.826;2023-02-12T05:22:11;-3.60;99.90
58309;DHT22;44117;57.142;24.826;2023-02-12T05:24:38;-3.70;99.90
58309;DHT22;44117;57.142;24.826;2023-02-12T05:27:06;-3.60;99.90
58309;DHT22;44117;57.142;24.826;2023-02-12T05:29:35;-3.50;99.90
58309;DHT22;44117;57.142;24.826;2023-02-12T05:32:02;-3.40;99.90
58309;DHT22;44117;57.142;24.826;2023-02-12T05:34:29;-3.50;99.90
58309;DHT22;44117;57.142;24.826;2023-02-12T05:36:56;-3.40;99.90
58309;DHT22;44117;57.142;24.826;2023-02-12T05:39:23;-3.50;99.90
58309;DHT22;44117;57.142;24.826;2023-02-12T05:41:50;-3.50;99.90
58309;DHT22;44117;57.142;24.826;2023-02-12T05:44:17;-3.60;99.90
58309;DHT22;44117;57.142;24.826;2023-02-12T05:46:44;-3.60;99.90
58309;DHT22;44117;57.142;24.826;2023-02-12T05:49:12;-3.50;99.90
58309;DHT22;44117;57.142;24.826;2023-02-12T05:51:39;-3.50;99.90
58309;DHT22;44117;57.142;24.826;2023-02-12T05:54:06;-3.50;99.90
58309;DHT22;44117;57.142;24.826;2023-02-12T05:56:34;-3.50;99.90
58309;DHT22;44117;57.142;24.826;2023-02-12T05:59:06;-3.40;99.90
58309;DHT22;44117;57.142;24.826;2023-02-12T06:01:34;-3.60;99.90
58309;DHT22;44117;57.142;24.826;2023-02-12T06:04:02;-3.70;99.90
58309;DHT22;44117;57.142;24.826;2023-02-12T06:06:30;-3.70;99.90
58309;DHT22;44117;57.142;24.826;2023-02-12T06:08:57;-3.60;99.90
58309;DHT22;44117;57.142;24.826;2023-02-12T06:11:25;-3.60;99.90
58309;DHT22;44117;57.142;24.826;2023-02-12T06:13:52;-3.50;99.90
58309;DHT22;44117;57.142;24.826;2023-02-12T06:16:20;-3.50;99.90
58309;DHT22;44117;57.142;24.826;2023-02-12T06:18:48;-3.50;99.90
58309;DHT22;44117;57.142;24.826;2023-02-12T06:21:15;-3.40;99.90
58309;DHT22;44117;57.142;24.826;2023-02-12T06:23:43;-3.30;99.90
58309;DHT22;44117;57.142;24.826;2023-02-12T06:26:10;-3.20;99.90
58309;DHT22;44117;57.142;24.826;2023-02-12T06:28:37;-3.00;99.90
58309;DHT22;44117;57.142;24.826;2023-02-12T06:31:05;-3.00;99.90
58309;DHT22;44117;57.142;24.826;2023-02-12T06:33:41;-2.90;99.90
58309;DHT22;44117;57.142;24.826;2023-02-12T06:36:08;-2.80;99.90
58309;DHT22;44117;57.142;24.826;2023-02-12T06:38:35;-2.90;99.90
58309;DHT22;44117;57.142;24.826;2023-02-12T06:41:03;-2.80;99.90
58309;DHT22;44117;57.142;24.826;2023-02-12T06:43:30;-2.60;99.90
58309;DHT22;44117;57.142;24.826;2023-02-12T06:45:59;-2.50;99.90
58309;DHT22;44117;57.142;24.826;2023-02-12T06:48:26;-2.30;99.90
58309;DHT22;44117;57.142;24.826;2023-02-12T06:50:53;-2.20;99.90
58309;DHT22;44117;57.142;24.826;2023-02-12T06:53:20;-2.20;99.90
58309;DHT22;44117;57.142;24.826;2023-02-12T06:55:48;-2.00;99.90
58309;DHT22;44117;57.142;24.826;2023-02-12T06:58:15;-1.90;99.90
58309;DHT22;44117;57.142;24.826;2023-02-12T07:00:41;-1.90;99.90
58309;DHT22;44117;57.142;24.826;2023-02-12T07:03:09;-1.80;99.90
58309;DHT22;44117;57.142;24.826;2023-02-12T07:05:38;-1.80;99.90
58309;DHT22;44117;57.142;24.826;2023-02-12T07:08:05;-1.80;99.90
58309;DHT22;44117;57.142;24.826;2023-02-12T07:10:32;-1.80;99.90
58309;DHT22;44117;57.142;24.826;2023-02-12T07:12:59;-1.80;99.90
58309;DHT22;44117;57.142;24.826;2023-02-12T07:15:26;-1.80;99.90
58309;DHT22;44117;57.142;24.826;2023-02-12T07:17:53;-1.70;99.90
58309;DHT22;44117;57.142;24.826;2023-02-12T07:20:21;-1.60;99.90
58309;DHT22;44117;57.142;24.826;2023-02-12T07:22:48;-1.40;99.90
58309;DHT22;44117;57.142;24.826;2023-02-12T07:25:15;-1.40;99.90
58309;DHT22;44117;57.142;24.826;2023-02-12T07:27:42;-1.40;99.90
58309;DHT22;44117;57.142;24.826;2023-02-12T07:30:09;-1.30;99.90
58309;DHT22;44117;57.142;24.826;2023-02-12T07:32:37;-1.40;99.90
58309;DHT22;44117;57.142;24.826;2023-02-12T07:35:04;-1.40;99.90
58309;DHT22;44117;57.142;24.826;2023-02-12T07:37:32;-1.50;99.90
58309;DHT22;44117;57.142;24.826;2023-02-12T07:39:59;-1.40;99.90
58309;DHT22;44117;57.142;24.826;2023-02-12T07:42:26;-1.20;99.90
58309;DHT22;44117;57.142;24.826;2023-02-12T07:44:53;-1.20;99.90
58309;DHT22;44117;57.142;24.826;2023-02-12T07:47:20;-1.20;99.90
58309;DHT22;44117;57.142;24.826;2023-02-12T07:49:47;-1.30;99.90
58309;DHT22;44117;57.142;24.826;2023-02-12T07:52:14;-1.20;99.90
58309;DHT22;44117;57.142;24.826;2023-02-12T07:54:41;-1.20;99.90
58309;DHT22;44117;57.142;24.826;2023-02-12T07:57:08;-1.20;99.90
58309;DHT22;44117;57.142;24.826;2023-02-12T07:59:35;-1.00;99.90
58309;DHT22;44117;57.142;24.826;2023-02-12T08:02:02;-1.00;99.90
58309;DHT22;44117;57.142;24.826;2023-02-12T08:04:29;-1.00;99.90
58309;DHT22;44117;57.142;24.826;2023-02-12T08:06:56;-0.90;99.90
58309;DHT22;44117;57.142;24.826;2023-02-12T08:09:26;-0.80;99.90
58309;DHT22;44117;57.142;24.826;2023-02-12T08:11:53;-0.80;99.90
58309;DHT22;44117;57.142;24.826;2023-02-12T08:14:20;-0.80;99.90
58309;DHT22;44117;57.142;24.826;2023-02-12T08:16:48;-0.80;99.90
58309;DHT22;44117;57.142;24.826;2023-02-12T08:19:15;-0.80;99.90
58309;DHT22;44117;57.142;24.826;2023-02-12T08:21:48;-0.70;99.90
58309;DHT22;44117;57.142;24.826;2023-02-12T08:24:16;-0.60;99.90
58309;DHT22;44117;57.142;24.826;2023-02-12T08:26:43;-0.60;99.90
58309;DHT22;44117;57.142;24.826;2023-02-12T08:29:12;-0.50;99.90
58309;DHT22;44117;57.142;24.826;2023-02-12T08:31:41;-0.40;99.90
58309;DHT22;44117;57.142;24.826;2023-02-12T08:34:42;-0.40;99.90
58309;DHT22;44117;57.142;24.826;2023-02-12T08:37:03;-0.30;99.90
58309;DHT22;44117;57.142;24.826;2023-02-12T08:39:31;-0.20;99.90
58309;DHT22;44117;57.142;24.826;2023-02-12T08:41:58;-0.10;99.90
58309;DHT22;44117;57.142;24.826;2023-02-12T08:44:25;0.10;99.90
58309;DHT22;44117;57.142;24.826;2023-02-12T08:46:53;0.20;99.90
58309;DHT22;44117;57.142;24.826;2023-02-12T08:49:23;0.20;99.90
58309;DHT22;44117;57.142;24.826;2023-02-12T08:51:51;0.10;99.90
58309;DHT22;44117;57.142;24.826;2023-02-12T08:54:20;0.10;99.90
58309;DHT22;44117;57.142;24.826;2023-02-12T08:56:47;0.20;99.90
58309;DHT22;44117;57.142;24.826;2023-02-12T08:59:15;0.20;99.90
58309;DHT22;44117;57.142;24.826;2023-02-12T09:01:42;0.30;99.90
58309;DHT22;44117;57.142;24.826;2023-02-12T09:04:14;0.30;99.90
58309;DHT22;44117;57.142;24.826;2023-02-12T09:06:44;0.30;99.90
58309;DHT22;44117;57.142;24.826;2023-02-12T09:09:11;0.40;99.90
58309;DHT22;44117;57.142;24.826;2023-02-12T09:11:39;0.40;99.90
58309;DHT22;44117;57.142;24.826;2023-02-12T09:14:07;0.50;99.90
58309;DHT22;44117;57.142;24.826;2023-02-12T09:16:36;0.40;99.90
58309;DHT22;44117;57.142;24.826;2023-02-12T09:19:05;0.50;99.90
58309;DHT22;44117;57.142;24.826;2023-02-12T09:21:32;0.70;99.90
58309;DHT22;44117;57.142;24.826;2023-02-12T09:24:00;0.80;99.90
58309;DHT22;44117;57.142;24.826;2023-02-12T09:26:27;1.00;99.90
58309;DHT22;44117;57.142;24.826;2023-02-12T09:28:54;1.00;99.90
58309;DHT22;44117;57.142;24.826;2023-02-12T09:31:25;0.90;99.90
58309;DHT22;44117;57.142;24.826;2023-02-12T09:33:56;0.90;99.90
58309;DHT22;44117;57.142;24.826;2023-02-12T09:36:23;1.00;99.90
58309;DHT22;44117;57.142;24.826;2023-02-12T09:38:51;1.40;99.90
58309;DHT22;44117;57.142;24.826;2023-02-12T09:43:52;1.40;99.90
58309;DHT22;44117;57.142;24.826;2023-02-12T09:46:33;1.60;99.90
58309;DHT22;44117;57.142;24.826;2023-02-12T09:51:47;1.60;99.90
58309;DHT22;44117;57.142;24.826;2023-02-12T09:54:17;2.10;99.90
58309;DHT22;44117;57.142;24.826;2023-02-12T09:56:55;2.20;99.90
58309;DHT22;44117;57.142;24.826;2023-02-12T09:59:34;2.40;99.90
58309;DHT22;44117;57.142;24.826;2023-02-12T10:02:05;2.30;99.90
58309;DHT22;44117;57.142;24.826;2023-02-12T10:04:37;2.00;99.90
58309;DHT22;44117;57.142;24.826;2023-02-12T10:07:27;2.00;99.90
58309;DHT22;44117;57.142;24.826;2023-02-12T10:10:02;2.30;99.90
58309;DHT22;44117;57.142;24.826;2023-02-12T10:12:35;2.30;99.90
58309;DHT22;44117;57.142;24.826;2023-02-12T10:23:13;2.10;99.90
58309;DHT22;44117;57.142;24.826;2023-02-12T10:25:53;2.10;99.90
58309;DHT22;44117;57.142;24.826;2023-02-12T10:28:27;1.80;99.90
58309;DHT22;44117;57.142;24.826;2023-02-12T10:31:15;1.70;99.90
58309;DHT22;44117;57.142;24.826;2023-02-12T10:33:48;1.80;99.90
58309;DHT22;44117;57.142;24.826;2023-02-12T10:38:54;2.10;99.90
58309;DHT22;44117;57.142;24.826;2023-02-12T10:41:23;2.10;99.90
58309;DHT22;44117;57.142;24.826;2023-02-12T10:43:51;2.40;99.90
58309;DHT22;44117;57.142;24.826;2023-02-12T10:46:18;2.40;99.90
58309;DHT22;44117;57.142;24.826;2023-02-12T10:48:47;2.20;99.90
58309;DHT22;44117;57.142;24.826;2023-02-12T10:51:23;2.20;99.90
58309;DHT22;44117;57.142;24.826;2023-02-12T10:53:55;2.10;99.90
58309;DHT22;44117;57.142;24.826;2023-02-12T10:56:22;2.40;99.90
58309;DHT22;44117;57.142;24.826;2023-02-12T11:03:54;2.40;99.90
58309;DHT22;44117;57.142;24.826;2023-02-12T11:06:23;2.60;99.90
58309;DHT22;44117;57.142;24.826;2023-02-12T11:08:51;2.40;99.90
58309;DHT22;44117;57.142;24.826;2023-02-12T11:11:21;2.50;99.90
58309;DHT22;44117;57.142;24.826;2023-02-12T11:16:39;2.50;99.90
58309;DHT22;44117;57.142;24.826;2023-02-12T11:19:19;2.40;99.90
58309;DHT22;44117;57.142;24.826;2023-02-12T11:21:47;2.50;99.90
58309;DHT22;44117;57.142;24.826;2023-02-12T11:24:29;2.60;99.90
58309;DHT22;44117;57.142;24.826;2023-02-12T11:29:38;3.00;99.90
58309;DHT22;44117;57.142;24.826;2023-02-12T11:32:07;3.20;99.90
58309;DHT22;44117;57.142;24.826;2023-02-12T11:34:34;3.10;99.90
58309;DHT22;44117;57.142;24.826;2023-02-12T11:37:02;3.00;99.90
58309;DHT22;44117;57.142;24.826;2023-02-12T11:39:34;2.60;99.90
58309;DHT22;44117;57.142;24.826;2023-02-12T11:42:04;2.80;99.90
58309;DHT22;44117;57.142;24.826;2023-02-12T11:44:36;2.70;99.90
58309;DHT22;44117;57.142;24.826;2023-02-12T11:47:05;2.40;99.90
58309;DHT22;44117;57.142;24.826;2023-02-12T11:52:19;2.20;99.90
58309;DHT22;44117;57.142;24.826;2023-02-12T11:54:47;2.30;99.90
58309;DHT22;44117;57.142;24.826;2023-02-12T12:00:03;2.10;99.90
58309;DHT22;44117;57.142;24.826;2023-02-12T12:02:31;2.10;99.90
58309;DHT22;44117;57.142;24.826;2023-02-12T12:05:09;2.20;99.90
58309;DHT22;44117;57.142;24.826;2023-02-12T12:07:38;2.20;99.90
58309;DHT22;44117;57.142;24.826;2023-02-12T12:12:47;2.30;99.90
58309;DHT22;44117;57.142;24.826;2023-02-12T12:20:57;2.90;99.90
58309;DHT22;44117;57.142;24.826;2023-02-12T12:25:59;2.90;99.90
58309;DHT22;44117;57.142;24.826;2023-02-12T12:28:39;2.90;99.90
58309;DHT22;44117;57.142;24.826;2023-02-12T12:46:57;3.00;99.90
58309;DHT22;44117;57.142;24.826;2023-02-12T12:49:37;2.80;99.90
58309;DHT22;44117;57.142;24.826;2023-02-12T12:52:24;2.60;99.90
58309;DHT22;44117;57.142;24.826;2023-02-12T13:13:19;2.80;99.90
58309;DHT22;44117;57.142;24.826;2023-02-12T13:23:24;2.40;99.90
58309;DHT22;44117;57.142;24.826;2023-02-12T13:28:40;2.50;99.90
58309;DHT22;44117;57.142;24.826;2023-02-12T13:31:09;2.70;99.90
58309;DHT22;44117;57.142;24.826;2023-02-12T13:34:06;2.50;99.90
58309;DHT22;44117;57.142;24.826;2023-02-12T13:36:34;2.40;99.90
58309;DHT22;44117;57.142;24.826;2023-02-12T13:41:38;2.40;99.90
58309;DHT22;44117;57.142;24.826;2023-02-12T13:46:50;2.30;99.90
58309;DHT22;44117;57.142;24.826;2023-02-12T13:52:12;2.20;99.90
58309;DHT22;44117;57.142;24.826;2023-02-12T13:57:23;2.10;99.90
58309;DHT22;44117;57.142;24.826;2023-02-12T13:59:53;1.90;99.90
58309;DHT22;44117;57.142;24.826;2023-02-12T14:05:01;1.90;99.90
58309;DHT22;44117;57.142;24.826;2023-02-12T14:07:48;1.90;99.90
58309;DHT22;44117;57.142;24.826;2023-02-12T14:12:52;1.90;99.90
58309;DHT22;44117;57.142;24.826;2023-02-12T14:15:28;1.90;99.90
58309;DHT22;44117;57.142;24.826;2023-02-12T14:23:43;1.80;99.90
58309;DHT22;44117;57.142;24.826;2023-02-12T14:25:53;1.80;99.90
58309;DHT22;44117;57.142;24.826;2023-02-12T14:29:05;1.80;99.90
58309;DHT22;44117;57.142;24.826;2023-02-12T14:33:49;1.70;99.90
58309;DHT22;44117;57.142;24.826;2023-02-12T14:36:18;1.70;99.90
58309;DHT22;44117;57.142;24.826;2023-02-12T14:44:50;1.70;99.90
58309;DHT22;44117;57.142;24.826;2023-02-12T14:54:41;1.60;99.90
58309;DHT22;44117;57.142;24.826;2023-02-12T14:57:21;1.60;99.90
58309;DHT22;44117;57.142;24.826;2023-02-12T14:59:49;1.60;99.90
58309;DHT22;44117;57.142;24.826;2023-02-12T15:02:24;1.50;99.90
58309;DHT22;44117;57.142;24.826;2023-02-12T15:04:52;1.50;99.90
58309;DHT22;44117;57.142;24.826;2023-02-12T15:07:26;1.50;99.90
58309;DHT22;44117;57.142;24.826;2023-02-12T15:09:59;1.50;99.90
58309;DHT22;44117;57.142;24.826;2023-02-12T15:12:40;1.50;99.90
58309;DHT22;44117;57.142;24.826;2023-02-12T15:15:17;1.50;99.90
58309;DHT22;44117;57.142;24.826;2023-02-12T15:17:52;1.50;99.90
58309;DHT22;44117;57.142;24.826;2023-02-12T15:20:21;1.50;99.90
58309;DHT22;44117;57.142;24.826;2023-02-12T15:22:49;1.50;99.90
58309;DHT22;44117;57.142;24.826;2023-02-12T15:25:23;1.50;99.90
58309;DHT22;44117;57.142;24.826;2023-02-12T15:27:53;1.50;99.90
58309;DHT22;44117;57.142;24.826;2023-02-12T15:30:21;1.40;99.90
58309;DHT22;44117;57.142;24.826;2023-02-12T15:32:54;1.40;99.90
58309;DHT22;44117;57.142;24.826;2023-02-12T15:35:25;1.50;99.90
58309;DHT22;44117;57.142;24.826;2023-02-12T15:37:53;1.50;99.90
58309;DHT22;44117;57.142;24.826;2023-02-12T15:40:21;1.50;99.90
58309;DHT22;44117;57.142;24.826;2023-02-12T15:45:19;1.40;99.90
58309;DHT22;44117;57.142;24.826;2023-02-12T15:48:22;1.40;99.90
58309;DHT22;44117;57.142;24.826;2023-02-12T15:50:49;1.40;99.90
58309;DHT22;44117;57.142;24.826;2023-02-12T15:53:17;1.40;99.90
58309;DHT22;44117;57.142;24.826;2023-02-12T15:55:45;1.40;99.90
58309;DHT22;44117;57.142;24.826;2023-02-12T15:58:20;1.40;99.90
58309;DHT22;44117;57.142;24.826;2023-02-12T16:00:48;1.40;99.90
58309;DHT22;44117;57.142;24.826;2023-02-12T16:05:46;1.40;99.90
58309;DHT22;44117;57.142;24.826;2023-02-12T16:08:13;1.40;99.90
58309;DHT22;44117;57.142;24.826;2023-02-12T16:10:46;1.40;99.90
58309;DHT22;44117;57.142;24.826;2023-02-12T16:13:15;1.40;99.90
58309;DHT22;44117;57.142;24.826;2023-02-12T16:15:43;1.40;99.90
58309;DHT22;44117;57.142;24.826;2023-02-12T16:18:29;1.40;99.90
58309;DHT22;44117;57.142;24.826;2023-02-12T16:21:30;1.50;99.90
58309;DHT22;44117;57.142;24.826;2023-02-12T16:23:49;1.50;99.90
58309;DHT22;44117;57.142;24.826;2023-02-12T16:26:18;1.50;99.90
58309;DHT22;44117;57.142;24.826;2023-02-12T16:28:46;1.50;99.90
58309;DHT22;44117;57.142;24.826;2023-02-12T16:31:14;1.50;99.90
58309;DHT22;44117;57.142;24.826;2023-02-12T16:33:43;1.50;99.90
58309;DHT22;44117;57.142;24.826;2023-02-12T16:38:43;1.50;99.90
58309;DHT22;44117;57.142;24.826;2023-02-12T16:43:44;1.60;99.90
58309;DHT22;44117;57.142;24.826;2023-02-12T16:46:11;1.60;99.90
58309;DHT22;44117;57.142;24.826;2023-02-12T16:48:43;1.60;99.90
58309;DHT22;44117;57.142;24.826;2023-02-12T16:51:46;1.60;99.90
58309;DHT22;44117;57.142;24.826;2023-02-12T16:54:22;1.60;99.90
58309;DHT22;44117;57.142;24.826;2023-02-12T16:56:51;1.60;99.90
58309;DHT22;44117;57.142;24.826;2023-02-12T16:59:18;1.70;99.90
58309;DHT22;44117;57.142;24.826;2023-02-12T17:04:27;1.70;99.90
58309;DHT22;44117;57.142;24.826;2023-02-12T17:06:54;1.70;99.90
58309;DHT22;44117;57.142;24.826;2023-02-12T17:09:21;1.70;99.90
58309;DHT22;44117;57.142;24.826;2023-02-12T17:11:48;1.80;99.90
58309;DHT22;44117;57.142;24.826;2023-02-12T17:14:16;1.80;99.90
58309;DHT22;44117;57.142;24.826;2023-02-12T17:16:44;1.80;99.90
58309;DHT22;44117;57.142;24.826;2023-02-12T17:19:12;1.80;99.90
58309;DHT22;44117;57.142;24.826;2023-02-12T17:21:43;1.80;99.90
58309;DHT22;44117;57.142;24.826;2023-02-12T17:24:22;1.80;99.90
58309;DHT22;44117;57.142;24.826;2023-02-12T17:26:50;1.90;99.90
58309;DHT22;44117;57.142;24.826;2023-02-12T17:29:17;1.90;99.90
58309;DHT22;44117;57.142;24.826;2023-02-12T17:31:45;1.90;99.90
58309;DHT22;44117;57.142;24.826;2023-02-12T17:34:14;1.90;99.90
58309;DHT22;44117;57.142;24.826;2023-02-12T17:36:41;1.80;99.90
58309;DHT22;44117;57.142;24.826;2023-02-12T17:39:10;1.90;99.90
58309;DHT22;44117;57.142;24.826;2023-02-12T17:41:37;1.90;99.90
58309;DHT22;44117;57.142;24.826;2023-02-12T17:44:04;1.90;99.90
58309;DHT22;44117;57.142;24.826;2023-02-12T17:46:32;1.90;99.90
58309;DHT22;44117;57.142;24.826;2023-02-12T17:48:59;1.90;99.90
58309;DHT22;44117;57.142;24.826;2023-02-12T17:51:26;1.80;99.90
58309;DHT22;44117;57.142;24.826;2023-02-12T17:53:53;1.90;99.90
58309;DHT22;44117;57.142;24.826;2023-02-12T17:56:21;1.90;99.90
58309;DHT22;44117;57.142;24.826;2023-02-12T17:58:48;1.80;99.90
58309;DHT22;44117;57.142;24.826;2023-02-12T18:01:18;1.90;99.90
58309;DHT22;44117;57.142;24.826;2023-02-12T18:03:45;1.90;99.90
58309;DHT22;44117;57.142;24.826;2023-02-12T18:06:12;1.90;99.90
58309;DHT22;44117;57.142;24.826;2023-02-12T18:08:42;1.80;99.90
58309;DHT22;44117;57.142;24.826;2023-02-12T18:11:09;1.90;99.90
58309;DHT22;44117;57.142;24.826;2023-02-12T18:13:37;1.90;99.90
58309;DHT22;44117;57.142;24.826;2023-02-12T18:16:05;1.90;99.90
58309;DHT22;44117;57.142;24.826;2023-02-12T18:18:32;1.90;99.90
58309;DHT22;44117;57.142;24.826;2023-02-12T18:21:00;1.90;99.90
58309;DHT22;44117;57.142;24.826;2023-02-12T18:23:26;1.90;99.90
58309;DHT22;44117;57.142;24.826;2023-02-12T18:25:54;1.90;99.90
58309;DHT22;44117;57.142;24.826;2023-02-12T18:28:21;1.90;99.90
58309;DHT22;44117;57.142;24.826;2023-02-12T18:30:53;1.90;99.90